West Salem, Ohio
Current Conditions -  °F | °C
As of 8:58 PM on Monday 20 Oct 2014 (Local Time) from KBJJ Reporting Station
Light Rain Light Rain  
Wind Chill: 53°   Ceiling: 900
Heat Index: 53°   Visibility: 5mi
Dew Point: 49°   Wind: 8mph
Humidity: 86%   Direction: 220°SW
Pressure: 29.87"   Gusts: NA
Location:  40.97°N, 82.11°W
Report Text: KBJJ 210058Z AUTO 22007KT 5SM -RA BR BKN009 BKN017 OVC050 12/09 A2987 RMK AO2 P0000 T01170094 TSNO
Loading
Personal Weather Stations






























Interactive Weather Map New forecast layout! Learn more

10-Day Weather Forecast

Advertisements
Track Severe Weather on mobile